Aviation Digital Data Service (ADDS)

Output produced by METARs form (1538 UTC 26 April 2019)
found at http://www.aviationweather.gov/metar/data/
 
TAF AMD LFPG 261411Z 2614/2718 22010KT 9999 SCT035 TX16/2614Z TN08/2718Z 
     PROB40 
     TEMPO 2614/2618 23015G25KT SCT030TCU 
     PROB30 
     TEMPO 2617/2619 4000 TSRA SCT025CB 
     TEMPO 2703/2706 4000 RA BKN013 
     BECMG 2703/2706 27018G30KT 
     PROB40 
     TEMPO 2710/2715 27020G40KT SCT025TCU 
     PROB30 
     TEMPO 2710/2715 4000 TSRA SCT020CB